createdAt,value
2023-03-03T00:01:08.805Z,0.67
2023-03-03T00:03:35.256Z,0.67
2023-03-03T00:06:03.118Z,0.68
2023-03-03T00:08:29.524Z,0.74
2023-03-03T00:10:55.829Z,0.77
2023-03-03T00:13:23.550Z,0.58
2023-03-03T00:15:51.616Z,0.82
2023-03-03T00:18:28.671Z,0.79
2023-03-03T00:20:56.662Z,0.58
2023-03-03T00:23:36.538Z,0.60
2023-03-03T00:26:13.597Z,0.44
2023-03-03T00:28:47.432Z,0.55
2023-03-03T00:31:18.573Z,0.57
2023-03-03T00:33:55.133Z,0.69
2023-03-03T00:36:37.952Z,0.75
2023-03-03T00:39:26.044Z,0.43
2023-03-03T00:41:52.450Z,0.53
2023-03-03T00:44:37.179Z,0.27
2023-03-03T00:47:22.302Z,0.30
2023-03-03T00:49:48.593Z,0.32
2023-03-03T00:52:17.032Z,0.26
2023-03-03T00:54:43.497Z,0.28
2023-03-03T00:57:12.560Z,0.19
2023-03-03T00:59:39.147Z,0.48
2023-03-03T01:02:05.840Z,0.57
2023-03-03T01:04:32.271Z,0.53
2023-03-03T01:06:58.742Z,0.37
2023-03-03T01:09:25.121Z,0.46
2023-03-03T01:11:51.713Z,0.50
2023-03-03T01:14:18.200Z,0.43
2023-03-03T01:16:44.551Z,0.35
2023-03-03T01:19:10.888Z,0.25
2023-03-03T01:21:37.288Z,0.14
2023-03-03T01:24:03.628Z,0.24
2023-03-03T01:26:31.385Z,0.22
2023-03-03T01:28:57.687Z,0.47
2023-03-03T01:31:24.066Z,0.30
2023-03-03T01:33:50.599Z,0.23
2023-03-03T01:36:22.710Z,0.41
2023-03-03T01:38:49.035Z,0.30
2023-03-03T01:41:15.343Z,-0.03
2023-03-03T01:43:45.854Z,0.05
2023-03-03T01:46:24.016Z,0.21
2023-03-03T01:48:53.482Z,0.19
2023-03-03T01:51:23.738Z,0.16
2023-03-03T01:53:51.580Z,0.29
2023-03-03T01:56:18.281Z,0.45
2023-03-03T01:58:46.901Z,0.12
2023-03-03T02:01:19.286Z,-0.03
2023-03-03T02:03:45.600Z,0.18
2023-03-03T02:06:16.353Z,0.09
2023-03-03T02:08:53.795Z,0.09
2023-03-03T02:11:21.848Z,0.28
2023-03-03T02:13:48.213Z,0.53
2023-03-03T02:16:14.998Z,0.31
2023-03-03T02:18:41.370Z,0.49
2023-03-03T02:21:12.591Z,0.33
2023-03-03T02:23:47.931Z,0.07
2023-03-03T02:26:25.903Z,0.05
2023-03-03T02:28:52.502Z,0.12
2023-03-03T02:31:20.132Z,0.15
2023-03-03T02:33:48.185Z,0.38
2023-03-03T02:36:15.705Z,0.25
2023-03-03T02:38:54.176Z,0.36
2023-03-03T02:41:23.516Z,0.17
2023-03-03T02:43:52.832Z,0.23
2023-03-03T02:46:19.254Z,0.22
2023-03-03T02:48:45.597Z,0.02
2023-03-03T02:51:11.874Z,0.04
2023-03-03T02:53:38.313Z,0.11
2023-03-03T02:56:04.887Z,0.16
2023-03-03T02:58:31.351Z,0.22
2023-03-03T03:00:57.806Z,0.35
2023-03-03T03:03:24.267Z,0.40
2023-03-03T03:05:50.861Z,0.35
2023-03-03T03:08:17.163Z,0.13
2023-03-03T03:10:43.722Z,0.30
2023-03-03T03:13:10.056Z,0.44
2023-03-03T03:15:36.485Z,0.41
2023-03-03T03:18:02.827Z,0.38
2023-03-03T03:20:29.296Z,0.16
2023-03-03T03:22:55.604Z,0.13
2023-03-03T03:25:21.933Z,0.08
2023-03-03T03:27:48.270Z,0.01
2023-03-03T03:30:15.147Z,-0.30
2023-03-03T03:32:41.466Z,-0.24
2023-03-03T03:35:07.929Z,-0.01
2023-03-03T03:37:34.222Z,-0.02
2023-03-03T03:40:00.583Z,0.02
2023-03-03T03:42:27.005Z,-0.20
2023-03-03T03:44:53.325Z,0.15
2023-03-03T03:47:19.670Z,-0.13
2023-03-03T03:49:45.929Z,0.05
2023-03-03T03:52:12.223Z,0.20
2023-03-03T03:54:38.533Z,0.01
2023-03-03T03:57:04.882Z,0.03
2023-03-03T03:59:31.290Z,0.12
2023-03-03T04:01:57.657Z,0.13
2023-03-03T04:04:23.959Z,0.06
2023-03-03T04:06:50.343Z,-0.22
2023-03-03T04:09:16.685Z,-0.10
2023-03-03T04:11:42.970Z,-0.02
2023-03-03T04:14:09.234Z,0.21
2023-03-03T04:16:35.734Z,0.06
2023-03-03T04:19:02.029Z,0.16
2023-03-03T04:21:28.359Z,-0.04
2023-03-03T04:23:54.746Z,0.05
2023-03-03T04:26:21.123Z,-0.01
2023-03-03T04:28:47.393Z,-0.19
2023-03-03T04:31:13.713Z,-0.39
2023-03-03T04:33:40.134Z,-0.21
2023-03-03T04:36:06.502Z,-0.13
2023-03-03T04:38:32.946Z,0.04
2023-03-03T04:40:59.240Z,-0.01
2023-03-03T04:43:25.651Z,0.02
2023-03-03T04:45:52.159Z,0.15
2023-03-03T04:48:18.473Z,0.08
2023-03-03T04:50:44.780Z,0.09
2023-03-03T04:53:11.088Z,-0.06
2023-03-03T04:55:37.747Z,-0.14
2023-03-03T04:58:04.920Z,-0.17
2023-03-03T05:00:31.549Z,-0.49
2023-03-03T05:02:58.198Z,-0.30
2023-03-03T05:05:24.464Z,0.03
2023-03-03T05:07:50.773Z,0.07
2023-03-03T05:10:17.128Z,0.07
2023-03-03T05:12:44.097Z,0.28
2023-03-03T05:15:10.718Z,0.23
2023-03-03T05:17:37.134Z,0.06
2023-03-03T05:20:05.495Z,0.09
2023-03-03T05:22:31.828Z,0.10
2023-03-03T05:24:58.114Z,-0.02
2023-03-03T05:27:24.430Z,0.18
2023-03-03T05:29:51.243Z,0.06
2023-03-03T05:32:17.566Z,0.25
2023-03-03T05:34:43.896Z,0.06
2023-03-03T05:37:10.232Z,0.21
2023-03-03T05:39:36.593Z,0.27
2023-03-03T05:42:03.110Z,0.42
2023-03-03T05:44:29.722Z,0.39
2023-03-03T05:46:57.649Z,0.36
2023-03-03T05:49:24.011Z,0.29
2023-03-03T05:51:50.346Z,0.36
2023-03-03T05:54:16.669Z,0.11
2023-03-03T05:56:42.991Z,0.13
2023-03-03T05:59:09.305Z,0.13
2023-03-03T06:01:35.658Z,0.16
2023-03-03T06:04:02.014Z,0.15
2023-03-03T06:06:28.347Z,0.29
2023-03-03T06:08:57.123Z,0.27
2023-03-03T06:11:23.659Z,0.10
2023-03-03T06:13:49.998Z,0.02
2023-03-03T06:16:16.336Z,0.07
2023-03-03T06:18:42.669Z,0.15
2023-03-03T06:21:08.980Z,0.03
2023-03-03T06:23:35.309Z,-0.16
2023-03-03T06:26:01.654Z,-0.13
2023-03-03T06:28:28.257Z,-0.08
2023-03-03T06:30:55.145Z,0.05
2023-03-03T06:33:21.885Z,0.15
2023-03-03T06:35:51.313Z,-0.05
2023-03-03T06:38:18.025Z,-0.18
2023-03-03T06:40:44.767Z,-0.03
2023-03-03T06:43:11.119Z,0.20
2023-03-03T06:45:37.441Z,0.11
2023-03-03T06:48:04.301Z,0.04
2023-03-03T06:50:30.737Z,0.20
2023-03-03T06:53:05.068Z,0.09
2023-03-03T06:55:31.359Z,0.12
2023-03-03T06:57:57.647Z,0.06
2023-03-03T07:00:25.018Z,0.37
2023-03-03T07:02:57.681Z,0.28
2023-03-03T07:05:24.164Z,0.31
2023-03-03T07:07:50.504Z,0.19
2023-03-03T07:10:27.669Z,0.39
2023-03-03T07:12:54.549Z,0.37
2023-03-03T07:15:24.863Z,0.20
2023-03-03T07:17:55.023Z,0.23
2023-03-03T07:20:22.939Z,0.47
2023-03-03T07:22:49.340Z,0.05
2023-03-03T07:25:42.441Z,0.25
2023-03-03T07:28:27.965Z,0.54
2023-03-03T07:30:55.375Z,0.35
2023-03-03T07:33:29.015Z,0.40
2023-03-03T07:35:56.918Z,0.22
2023-03-03T07:38:25.514Z,0.37
2023-03-03T07:40:56.365Z,0.36
2023-03-03T07:43:22.643Z,0.53
2023-03-03T07:45:49.017Z,0.55
2023-03-03T07:48:31.485Z,0.69
2023-03-03T07:51:03.299Z,0.85
2023-03-03T07:53:34.695Z,0.71
2023-03-03T07:56:01.524Z,0.74
2023-03-03T07:58:35.693Z,0.75
2023-03-03T08:01:20.753Z,1.09
2023-03-03T08:03:49.414Z,0.95
2023-03-03T08:06:34.215Z,0.94
2023-03-03T08:09:09.596Z,0.99
2023-03-03T08:11:37.785Z,1.05
2023-03-03T08:14:09.549Z,0.86
2023-03-03T08:16:37.828Z,0.95
2023-03-03T08:19:05.329Z,0.93
2023-03-03T08:21:34.425Z,1.03
2023-03-03T08:24:00.783Z,0.76
2023-03-03T08:26:27.100Z,0.80
2023-03-03T08:28:54.133Z,0.78
2023-03-03T08:31:38.334Z,0.92
2023-03-03T08:34:06.858Z,1.01
2023-03-03T08:36:34.802Z,1.00
2023-03-03T08:39:01.542Z,1.07
2023-03-03T08:41:27.889Z,0.86
2023-03-03T08:43:54.206Z,1.06
2023-03-03T08:46:20.536Z,1.06
2023-03-03T08:48:46.948Z,1.07
2023-03-03T08:51:13.261Z,1.13
2023-03-03T08:53:39.630Z,1.34
2023-03-03T08:56:06.858Z,1.48
2023-03-03T08:58:35.816Z,1.32
2023-03-03T09:01:02.841Z,0.98
2023-03-03T09:03:29.876Z,0.99
2023-03-03T09:05:56.226Z,0.93
2023-03-03T09:08:23.091Z,0.77
2023-03-03T09:10:49.395Z,0.77
2023-03-03T09:13:17.197Z,0.96
2023-03-03T09:15:43.662Z,0.93
2023-03-03T09:18:26.296Z,1.00
2023-03-03T09:20:53.927Z,0.88
2023-03-03T09:23:25.971Z,1.27
2023-03-03T09:25:52.592Z,1.23
2023-03-03T09:28:23.908Z,1.17
2023-03-03T09:30:50.948Z,1.39
2023-03-03T09:33:26.527Z,1.48
2023-03-03T09:35:58.264Z,1.40
2023-03-03T09:38:32.226Z,1.29
2023-03-03T09:41:13.726Z,1.15
2023-03-03T09:43:49.826Z,1.32
2023-03-03T09:46:28.192Z,1.50
2023-03-03T09:49:13.402Z,1.12
2023-03-03T09:51:42.829Z,1.42
2023-03-03T09:54:15.374Z,1.52
2023-03-03T09:56:51.134Z,1.47
2023-03-03T09:59:26.464Z,1.52
2023-03-03T10:01:55.744Z,1.62
2023-03-03T10:04:31.217Z,1.47
2023-03-03T10:07:06.598Z,1.34
2023-03-03T10:09:51.865Z,1.57
2023-03-03T10:12:29.205Z,1.71
2023-03-03T10:15:13.871Z,1.72
2023-03-03T10:17:40.153Z,1.74
2023-03-03T10:20:15.472Z,1.64
2023-03-03T10:22:54.081Z,1.59
2023-03-03T10:25:29.737Z,1.40
2023-03-03T10:28:08.119Z,1.42
2023-03-03T10:31:02.498Z,1.47
2023-03-03T10:33:40.294Z,1.58
2023-03-03T10:36:30.650Z,1.85
2023-03-03T10:39:00.236Z,1.97
2023-03-03T10:41:29.549Z,1.82
2023-03-03T10:43:58.895Z,2.02
2023-03-03T10:46:31.296Z,2.00
2023-03-03T10:49:19.982Z,2.23
2023-03-03T10:51:55.481Z,2.19
2023-03-03T10:54:21.770Z,2.04
2023-03-03T10:56:57.623Z,1.99
2023-03-03T10:59:31.411Z,1.99
2023-03-03T11:02:19.211Z,2.16
2023-03-03T11:05:04.668Z,2.29
2023-03-03T11:07:31.002Z,2.12
2023-03-03T11:10:08.773Z,2.14
2023-03-03T11:12:35.137Z,2.23
2023-03-03T11:15:23.338Z,2.18
2023-03-03T11:18:08.427Z,2.24
2023-03-03T11:20:37.812Z,2.55
2023-03-03T11:23:28.383Z,2.32
2023-03-03T11:26:07.713Z,2.17
2023-03-03T11:28:46.502Z,2.41
2023-03-03T11:31:31.648Z,2.46
2023-03-03T11:33:58.191Z,2.43
2023-03-03T11:36:35.170Z,2.46
2023-03-03T11:39:09.829Z,2.38
2023-03-03T11:41:39.695Z,2.74
2023-03-03T11:44:18.417Z,2.68
2023-03-03T11:46:58.843Z,2.56
2023-03-03T11:49:28.363Z,2.64
2023-03-03T11:52:03.828Z,2.51
2023-03-03T11:54:30.140Z,2.52
2023-03-03T11:57:01.513Z,2.71
2023-03-03T11:59:31.844Z,2.61
2023-03-03T12:02:03.210Z,2.81
2023-03-03T12:04:32.623Z,2.73
2023-03-03T12:07:19.718Z,2.87
2023-03-03T12:09:46.304Z,3.04
2023-03-03T12:12:13.328Z,3.16
2023-03-03T12:14:45.494Z,3.07
2023-03-03T12:17:30.109Z,3.12
2023-03-03T12:19:56.546Z,2.90
2023-03-03T12:22:25.660Z,2.64
2023-03-03T12:25:04.742Z,2.91
2023-03-03T12:27:34.365Z,3.06
2023-03-03T12:30:00.701Z,3.04
2023-03-03T12:32:32.910Z,3.17
2023-03-03T12:35:06.822Z,3.08
2023-03-03T12:37:33.407Z,3.47
2023-03-03T12:40:02.715Z,3.30
2023-03-03T12:42:52.473Z,3.24
2023-03-03T12:45:27.874Z,3.23
2023-03-03T12:48:06.855Z,3.37
2023-03-03T12:50:41.977Z,3.40
2023-03-03T12:53:17.411Z,3.44
2023-03-03T12:56:00.450Z,3.58
2023-03-03T12:58:42.175Z,3.38
2023-03-03T13:01:34.340Z,3.46
2023-03-03T13:04:12.893Z,3.45
2023-03-03T13:06:57.777Z,3.41
2023-03-03T13:09:27.424Z,3.45
2023-03-03T13:12:08.980Z,3.38
2023-03-03T13:14:35.328Z,3.41
2023-03-03T13:17:21.890Z,3.35
2023-03-03T13:20:00.268Z,3.58
2023-03-03T13:22:41.842Z,3.44
2023-03-03T13:25:23.280Z,3.61
2023-03-03T13:27:52.849Z,3.66
2023-03-03T13:30:19.160Z,3.47
2023-03-03T13:33:01.906Z,3.39
2023-03-03T13:35:45.868Z,3.54
2023-03-03T13:38:20.890Z,3.58
2023-03-03T13:40:54.721Z,3.64
2023-03-03T13:43:34.549Z,3.76
2023-03-03T13:46:01.910Z,3.77
2023-03-03T13:48:43.069Z,3.76
2023-03-03T13:51:09.499Z,3.72
2023-03-03T13:53:41.837Z,3.66
2023-03-03T13:56:22.856Z,3.78
2023-03-03T13:58:49.201Z,3.88
2023-03-03T14:01:18.742Z,3.95
2023-03-03T14:03:48.131Z,3.91
2023-03-03T14:06:17.158Z,3.83
2023-03-03T14:09:02.221Z,3.79
2023-03-03T14:11:31.468Z,3.94
2023-03-03T14:14:05.280Z,3.69
2023-03-03T14:16:47.053Z,3.67
2023-03-03T14:19:25.557Z,3.72
2023-03-03T14:22:10.924Z,3.67
2023-03-03T14:24:55.756Z,3.72
2023-03-03T14:27:27.599Z,3.73
2023-03-03T14:29:54.083Z,3.80
2023-03-03T14:32:23.105Z,3.92
2023-03-03T14:34:57.815Z,3.87
2023-03-03T14:37:42.355Z,3.85
2023-03-03T14:40:08.752Z,3.80
2023-03-03T14:42:53.595Z,3.82
2023-03-03T14:45:36.322Z,4.01
2023-03-03T14:48:12.254Z,3.96
2023-03-03T14:50:40.126Z,3.94
2023-03-03T14:53:18.822Z,4.01
2023-03-03T14:55:46.490Z,3.98
2023-03-03T14:58:25.231Z,4.06
2023-03-03T15:01:06.437Z,4.02
2023-03-03T15:03:37.957Z,3.92
2023-03-03T15:06:12.758Z,4.12
2023-03-03T15:08:40.316Z,4.12
2023-03-03T15:11:14.203Z,4.13
2023-03-03T15:13:41.132Z,4.09
2023-03-03T15:16:12.438Z,3.91
2023-03-03T15:19:00.618Z,4.02
2023-03-03T15:21:32.278Z,4.12
2023-03-03T15:24:01.407Z,4.05
2023-03-03T15:26:27.911Z,4.16
2023-03-03T15:28:59.319Z,3.93
2023-03-03T15:31:44.403Z,3.88
2023-03-03T15:34:23.982Z,4.02
2023-03-03T15:37:05.501Z,3.76
2023-03-03T15:39:37.876Z,3.82
2023-03-03T15:42:13.517Z,3.84
2023-03-03T15:44:56.414Z,3.90
2023-03-03T15:47:32.155Z,3.89
2023-03-03T15:50:06.441Z,3.84
2023-03-03T15:52:36.243Z,4.04
2023-03-03T15:55:27.672Z,4.12
2023-03-03T15:57:54.018Z,4.00
2023-03-03T16:00:36.680Z,4.11
2023-03-03T16:03:15.279Z,4.12
2023-03-03T16:05:49.666Z,4.07
2023-03-03T16:08:22.527Z,4.13
2023-03-03T16:10:54.952Z,4.15
2023-03-03T16:13:27.438Z,4.11
2023-03-03T16:15:59.943Z,4.15
2023-03-03T16:18:38.966Z,4.12
2023-03-03T16:21:24.243Z,4.16
2023-03-03T16:23:52.081Z,4.19
2023-03-03T16:26:18.446Z,4.17
2023-03-03T16:28:53.497Z,4.21
2023-03-03T16:31:22.859Z,4.28
2023-03-03T16:34:07.278Z,4.21
2023-03-03T16:36:42.413Z,4.25
2023-03-03T16:39:12.531Z,4.14
2023-03-03T16:41:55.963Z,4.08
2023-03-03T16:44:22.308Z,4.09
2023-03-03T16:46:49.824Z,4.26
2023-03-03T16:49:25.560Z,4.00
2023-03-03T16:51:54.735Z,3.93
2023-03-03T16:54:32.060Z,3.99
2023-03-03T16:57:16.583Z,3.91
2023-03-03T17:00:06.531Z,3.99
2023-03-03T17:02:45.120Z,3.98
2023-03-03T17:05:28.149Z,4.01
2023-03-03T17:08:13.360Z,4.05
2023-03-03T17:11:03.045Z,4.07
2023-03-03T17:13:48.064Z,3.99
2023-03-03T17:16:21.261Z,3.91
2023-03-03T17:19:06.082Z,3.91
2023-03-03T17:21:35.319Z,3.86
2023-03-03T17:24:10.613Z,4.11
2023-03-03T17:26:57.423Z,4.09
2023-03-03T17:29:26.551Z,4.17
2023-03-03T17:31:56.055Z,4.20
2023-03-03T17:34:34.881Z,4.29
2023-03-03T17:37:07.109Z,4.25
2023-03-03T17:39:45.110Z,4.38
2023-03-03T17:42:19.257Z,4.43
2023-03-03T17:45:04.682Z,4.44
2023-03-03T17:47:31.003Z,4.39
2023-03-03T17:49:57.286Z,4.34
2023-03-03T17:52:38.701Z,4.33
2023-03-03T17:55:17.336Z,4.24
2023-03-03T17:57:51.196Z,4.37
2023-03-03T18:00:20.729Z,4.30
2023-03-03T18:03:05.908Z,4.36
2023-03-03T18:05:32.392Z,4.29
2023-03-03T18:08:18.019Z,4.25
2023-03-03T18:11:03.012Z,4.22
2023-03-03T18:13:34.473Z,4.20
2023-03-03T18:16:12.648Z,4.10
2023-03-03T18:18:45.634Z,4.12
2023-03-03T18:21:16.698Z,4.03
2023-03-03T18:23:45.048Z,3.94
2023-03-03T18:26:30.236Z,3.94
2023-03-03T18:29:10.925Z,3.87
2023-03-03T18:32:00.289Z,3.85
2023-03-03T18:34:40.249Z,3.65
2023-03-03T18:37:25.601Z,3.68
2023-03-03T18:40:04.408Z,3.66
2023-03-03T18:42:38.335Z,3.67
2023-03-03T18:45:20.347Z,3.70
2023-03-03T18:48:05.169Z,3.66
2023-03-03T18:50:31.548Z,3.80
2023-03-03T18:53:21.252Z,3.65
2023-03-03T18:55:48.905Z,3.57
2023-03-03T18:58:15.247Z,3.62
2023-03-03T19:01:02.822Z,3.63
2023-03-03T19:03:29.245Z,3.49
2023-03-03T19:05:57.846Z,3.54
2023-03-03T19:08:26.465Z,3.61
2023-03-03T19:11:03.112Z,3.62
2023-03-03T19:13:32.604Z,3.48
2023-03-03T19:16:06.375Z,3.41
2023-03-03T19:18:55.764Z,3.42
2023-03-03T19:21:25.261Z,3.62
2023-03-03T19:24:00.142Z,3.44
2023-03-03T19:26:28.872Z,3.42
2023-03-03T19:29:00.435Z,3.43
2023-03-03T19:31:26.743Z,3.49
2023-03-03T19:34:13.414Z,3.38
2023-03-03T19:36:42.876Z,3.48
2023-03-03T19:39:28.019Z,3.32
2023-03-03T19:42:13.195Z,3.41
2023-03-03T19:44:39.573Z,3.45
2023-03-03T19:47:24.587Z,3.38
2023-03-03T19:50:00.710Z,3.25
2023-03-03T19:52:33.184Z,3.39
2023-03-03T19:55:11.875Z,3.25
2023-03-03T19:58:00.159Z,3.17
2023-03-03T20:00:35.602Z,3.20
2023-03-03T20:03:18.382Z,3.17
2023-03-03T20:06:08.300Z,3.34
2023-03-03T20:08:41.374Z,3.40
2023-03-03T20:11:16.884Z,3.48
2023-03-03T20:13:43.274Z,3.27
2023-03-03T20:16:28.713Z,3.46
2023-03-03T20:19:07.275Z,3.20
2023-03-03T20:21:36.731Z,3.28
2023-03-03T20:24:29.510Z,3.28
2023-03-03T20:27:05.102Z,3.24
2023-03-03T20:29:49.896Z,3.42
2023-03-03T20:32:19.300Z,3.41
2023-03-03T20:34:59.048Z,3.24
2023-03-03T20:37:52.267Z,3.32
2023-03-03T20:40:27.202Z,3.13
2023-03-03T20:42:56.795Z,3.27
2023-03-03T20:45:26.399Z,3.34
2023-03-03T20:48:10.396Z,3.31
2023-03-03T20:50:53.639Z,3.40
2023-03-03T20:53:38.143Z,3.39
2023-03-03T20:56:10.629Z,3.27
2023-03-03T20:59:00.246Z,3.30
2023-03-03T21:01:36.042Z,3.28
2023-03-03T21:04:23.070Z,3.34
2023-03-03T21:06:49.853Z,3.29
2023-03-03T21:09:27.766Z,3.31
2023-03-03T21:11:54.695Z,3.16
2023-03-03T21:14:26.590Z,3.36
2023-03-03T21:16:56.265Z,3.33
2023-03-03T21:19:32.471Z,3.19
2023-03-03T21:22:01.992Z,3.34
2023-03-03T21:24:47.475Z,2.93
2023-03-03T21:27:33.628Z,3.25
2023-03-03T21:30:11.160Z,3.08
2023-03-03T21:32:39.082Z,2.98
2023-03-03T21:35:08.177Z,2.92
2023-03-03T21:37:48.480Z,2.87
2023-03-03T21:40:16.356Z,2.93
2023-03-03T21:42:44.171Z,2.85
2023-03-03T21:45:12.063Z,2.61
2023-03-03T21:47:38.377Z,2.44
2023-03-03T21:50:04.881Z,2.44
2023-03-03T21:52:32.982Z,2.31
2023-03-03T21:54:59.338Z,2.32
2023-03-03T21:57:25.788Z,2.19
2023-03-03T21:59:53.151Z,1.94
2023-03-03T22:02:19.476Z,2.20
2023-03-03T22:04:45.850Z,2.17
2023-03-03T22:07:12.273Z,2.13
2023-03-03T22:09:38.939Z,2.11
2023-03-03T22:12:06.349Z,2.17
2023-03-03T22:14:32.812Z,2.06
2023-03-03T22:16:59.122Z,2.17
2023-03-03T22:19:25.539Z,2.17
2023-03-03T22:21:51.886Z,1.93
2023-03-03T22:24:18.762Z,1.79
2023-03-03T22:26:45.289Z,1.95
2023-03-03T22:29:11.621Z,1.92
2023-03-03T22:31:37.964Z,2.13
2023-03-03T22:34:04.602Z,1.77
2023-03-03T22:36:30.966Z,1.60
2023-03-03T22:38:57.264Z,1.47
2023-03-03T22:41:23.656Z,1.53
2023-03-03T22:43:50.096Z,1.66
2023-03-03T22:46:16.393Z,1.58
2023-03-03T22:48:42.724Z,1.58
2023-03-03T22:51:09.143Z,1.69
2023-03-03T22:53:35.417Z,1.63
2023-03-03T22:56:01.817Z,1.71
2023-03-03T22:58:29.426Z,1.67
2023-03-03T23:00:55.830Z,1.90
2023-03-03T23:03:22.185Z,1.63
2023-03-03T23:05:51.582Z,1.62
2023-03-03T23:08:19.265Z,1.55
2023-03-03T23:10:45.969Z,1.38
2023-03-03T23:13:12.782Z,1.63
2023-03-03T23:15:39.073Z,1.78
2023-03-03T23:18:05.397Z,1.50
2023-03-03T23:20:31.867Z,1.38
2023-03-03T23:22:58.757Z,1.46
2023-03-03T23:25:25.687Z,1.29
2023-03-03T23:27:52.558Z,1.64
2023-03-03T23:30:19.554Z,1.74
2023-03-03T23:32:46.789Z,1.75
2023-03-03T23:35:13.180Z,1.92
2023-03-03T23:37:39.518Z,1.83
2023-03-03T23:40:06.575Z,2.02
2023-03-03T23:42:32.989Z,1.96
2023-03-03T23:44:59.472Z,1.99
2023-03-03T23:47:26.413Z,1.96
2023-03-03T23:49:52.764Z,2.01
2023-03-03T23:52:19.047Z,2.09
2023-03-03T23:54:45.450Z,2.04
2023-03-03T23:57:11.772Z,2.18
2023-03-03T23:59:38.100Z,2.07
